sensor_id;sensor_type;location;lat;lon;timestamp;P1;durP1;ratioP1;P2;durP2;ratioP2
32734;SDS011;19112;51.076;3.706;2023-04-06T00:01:59;35.70;;;15.35;;
32734;SDS011;19112;51.076;3.706;2023-04-06T00:04:25;33.97;;;16.83;;
32734;SDS011;19112;51.076;3.706;2023-04-06T00:06:51;41.58;;;16.38;;
32734;SDS011;19112;51.076;3.706;2023-04-06T00:09:17;37.67;;;16.20;;
32734;SDS011;19112;51.076;3.706;2023-04-06T00:11:43;34.08;;;15.25;;
32734;SDS011;19112;51.076;3.706;2023-04-06T00:14:09;32.20;;;15.77;;
32734;SDS011;19112;51.076;3.706;2023-04-06T00:16:35;37.17;;;16.52;;
32734;SDS011;19112;51.076;3.706;2023-04-06T00:19:01;39.33;;;17.10;;
32734;SDS011;19112;51.076;3.706;2023-04-06T00:21:27;37.50;;;16.15;;
32734;SDS011;19112;51.076;3.706;2023-04-06T00:23:53;33.72;;;15.40;;
32734;SDS011;19112;51.076;3.706;2023-04-06T00:26:18;35.42;;;15.32;;
32734;SDS011;19112;51.076;3.706;2023-04-06T00:28:45;37.70;;;18.00;;
32734;SDS011;19112;51.076;3.706;2023-04-06T00:31:10;35.95;;;16.60;;
32734;SDS011;19112;51.076;3.706;2023-04-06T00:33:36;38.80;;;16.90;;
32734;SDS011;19112;51.076;3.706;2023-04-06T00:36:02;43.78;;;18.73;;
32734;SDS011;19112;51.076;3.706;2023-04-06T00:38:28;38.20;;;18.10;;
32734;SDS011;19112;51.076;3.706;2023-04-06T00:40:54;44.13;;;19.73;;
32734;SDS011;19112;51.076;3.706;2023-04-06T00:43:20;41.05;;;17.85;;
32734;SDS011;19112;51.076;3.706;2023-04-06T00:45:46;40.55;;;17.75;;
32734;SDS011;19112;51.076;3.706;2023-04-06T00:48:12;37.45;;;17.77;;
32734;SDS011;19112;51.076;3.706;2023-04-06T00:50:38;38.28;;;17.60;;
32734;SDS011;19112;51.076;3.706;2023-04-06T00:53:04;40.28;;;17.90;;
32734;SDS011;19112;51.076;3.706;2023-04-06T00:55:30;37.67;;;17.95;;
32734;SDS011;19112;51.076;3.706;2023-04-06T00:57:57;35.72;;;17.27;;
32734;SDS011;19112;51.076;3.706;2023-04-06T01:00:26;38.17;;;18.20;;
32734;SDS011;19112;51.076;3.706;2023-04-06T01:02:52;44.67;;;19.98;;
32734;SDS011;19112;51.076;3.706;2023-04-06T01:05:19;40.70;;;18.50;;
32734;SDS011;19112;51.076;3.706;2023-04-06T01:07:45;37.78;;;17.95;;
32734;SDS011;19112;51.076;3.706;2023-04-06T01:10:11;39.08;;;19.58;;
32734;SDS011;19112;51.076;3.706;2023-04-06T01:12:51;43.55;;;19.70;;
32734;SDS011;19112;51.076;3.706;2023-04-06T01:15:17;43.92;;;19.92;;
32734;SDS011;19112;51.076;3.706;2023-04-06T01:17:45;43.03;;;21.48;;
32734;SDS011;19112;51.076;3.706;2023-04-06T01:20:11;43.75;;;20.65;;
32734;SDS011;19112;51.076;3.706;2023-04-06T01:22:37;42.15;;;20.50;;
32734;SDS011;19112;51.076;3.706;2023-04-06T01:25:03;45.30;;;21.75;;
32734;SDS011;19112;51.076;3.706;2023-04-06T01:27:30;45.75;;;21.77;;
32734;SDS011;19112;51.076;3.706;2023-04-06T01:29:55;43.58;;;21.83;;
32734;SDS011;19112;51.076;3.706;2023-04-06T01:32:21;47.78;;;23.05;;
32734;SDS011;19112;51.076;3.706;2023-04-06T01:34:47;46.90;;;23.58;;
32734;SDS011;19112;51.076;3.706;2023-04-06T01:37:13;45.95;;;23.90;;
32734;SDS011;19112;51.076;3.706;2023-04-06T01:39:39;46.90;;;22.67;;
32734;SDS011;19112;51.076;3.706;2023-04-06T01:42:07;50.72;;;24.35;;
32734;SDS011;19112;51.076;3.706;2023-04-06T01:44:32;47.40;;;23.60;;
32734;SDS011;19112;51.076;3.706;2023-04-06T01:46:58;47.65;;;23.48;;
32734;SDS011;19112;51.076;3.706;2023-04-06T01:49:24;48.22;;;23.80;;
32734;SDS011;19112;51.076;3.706;2023-04-06T01:51:50;49.50;;;23.77;;
32734;SDS011;19112;51.076;3.706;2023-04-06T01:54:17;48.63;;;22.80;;
32734;SDS011;19112;51.076;3.706;2023-04-06T01:56:43;48.67;;;23.50;;
32734;SDS011;19112;51.076;3.706;2023-04-06T01:59:09;51.80;;;25.10;;
32734;SDS011;19112;51.076;3.706;2023-04-06T02:01:35;53.25;;;25.88;;
32734;SDS011;19112;51.076;3.706;2023-04-06T02:04:01;51.28;;;25.13;;
32734;SDS011;19112;51.076;3.706;2023-04-06T02:06:26;47.72;;;24.38;;
32734;SDS011;19112;51.076;3.706;2023-04-06T02:08:52;52.78;;;26.05;;
32734;SDS011;19112;51.076;3.706;2023-04-06T02:11:18;52.85;;;26.27;;
32734;SDS011;19112;51.076;3.706;2023-04-06T02:13:44;50.22;;;26.33;;
32734;SDS011;19112;51.076;3.706;2023-04-06T02:16:10;53.22;;;26.55;;
32734;SDS011;19112;51.076;3.706;2023-04-06T02:18:36;55.03;;;27.50;;
32734;SDS011;19112;51.076;3.706;2023-04-06T02:21:02;55.35;;;28.02;;
32734;SDS011;19112;51.076;3.706;2023-04-06T02:23:27;55.45;;;28.33;;
32734;SDS011;19112;51.076;3.706;2023-04-06T02:25:53;53.25;;;28.40;;
32734;SDS011;19112;51.076;3.706;2023-04-06T02:28:19;50.38;;;25.67;;
32734;SDS011;19112;51.076;3.706;2023-04-06T02:30:45;47.42;;;25.75;;
32734;SDS011;19112;51.076;3.706;2023-04-06T02:33:11;53.83;;;27.00;;
32734;SDS011;19112;51.076;3.706;2023-04-06T02:35:37;51.38;;;25.75;;
32734;SDS011;19112;51.076;3.706;2023-04-06T02:38:03;50.85;;;25.52;;
32734;SDS011;19112;51.076;3.706;2023-04-06T02:40:29;49.08;;;26.55;;
32734;SDS011;19112;51.076;3.706;2023-04-06T02:42:54;54.17;;;27.20;;
32734;SDS011;19112;51.076;3.706;2023-04-06T02:45:20;50.10;;;26.70;;
32734;SDS011;19112;51.076;3.706;2023-04-06T02:47:46;50.97;;;26.33;;
32734;SDS011;19112;51.076;3.706;2023-04-06T02:50:12;55.08;;;27.33;;
32734;SDS011;19112;51.076;3.706;2023-04-06T02:52:38;57.75;;;29.48;;
32734;SDS011;19112;51.076;3.706;2023-04-06T02:55:04;57.92;;;30.00;;
32734;SDS011;19112;51.076;3.706;2023-04-06T02:57:32;58.90;;;28.98;;
32734;SDS011;19112;51.076;3.706;2023-04-06T02:59:58;58.38;;;28.35;;
32734;SDS011;19112;51.076;3.706;2023-04-06T03:02:24;54.90;;;27.20;;
32734;SDS011;19112;51.076;3.706;2023-04-06T03:04:50;60.97;;;28.88;;
32734;SDS011;19112;51.076;3.706;2023-04-06T03:07:16;60.63;;;29.83;;
32734;SDS011;19112;51.076;3.706;2023-04-06T03:09:42;56.42;;;28.63;;
32734;SDS011;19112;51.076;3.706;2023-04-06T03:12:07;58.70;;;30.65;;
32734;SDS011;19112;51.076;3.706;2023-04-06T03:14:33;53.95;;;29.38;;
32734;SDS011;19112;51.076;3.706;2023-04-06T03:16:59;62.83;;;30.13;;
32734;SDS011;19112;51.076;3.706;2023-04-06T03:19:25;59.67;;;31.85;;
32734;SDS011;19112;51.076;3.706;2023-04-06T03:21:51;66.35;;;30.75;;
32734;SDS011;19112;51.076;3.706;2023-04-06T03:24:17;63.30;;;29.55;;
32734;SDS011;19112;51.076;3.706;2023-04-06T03:26:43;62.08;;;31.42;;
32734;SDS011;19112;51.076;3.706;2023-04-06T03:29:09;63.20;;;30.92;;
32734;SDS011;19112;51.076;3.706;2023-04-06T03:31:34;61.55;;;32.42;;
32734;SDS011;19112;51.076;3.706;2023-04-06T03:34:00;58.97;;;29.35;;
32734;SDS011;19112;51.076;3.706;2023-04-06T03:36:26;56.28;;;28.63;;
32734;SDS011;19112;51.076;3.706;2023-04-06T03:38:52;54.88;;;28.05;;
32734;SDS011;19112;51.076;3.706;2023-04-06T03:41:18;54.88;;;28.27;;
32734;SDS011;19112;51.076;3.706;2023-04-06T03:43:44;56.30;;;27.40;;
32734;SDS011;19112;51.076;3.706;2023-04-06T03:46:10;57.05;;;26.83;;
32734;SDS011;19112;51.076;3.706;2023-04-06T03:48:36;59.33;;;29.75;;
32734;SDS011;19112;51.076;3.706;2023-04-06T03:51:02;66.75;;;29.98;;
32734;SDS011;19112;51.076;3.706;2023-04-06T03:53:28;52.67;;;26.95;;
32734;SDS011;19112;51.076;3.706;2023-04-06T03:55:54;53.53;;;26.90;;
32734;SDS011;19112;51.076;3.706;2023-04-06T03:58:20;57.35;;;26.95;;
32734;SDS011;19112;51.076;3.706;2023-04-06T04:00:46;58.90;;;27.60;;
32734;SDS011;19112;51.076;3.706;2023-04-06T04:03:12;55.20;;;27.90;;
32734;SDS011;19112;51.076;3.706;2023-04-06T04:05:38;56.70;;;27.90;;
32734;SDS011;19112;51.076;3.706;2023-04-06T04:08:03;60.83;;;29.75;;
32734;SDS011;19112;51.076;3.706;2023-04-06T04:10:29;57.83;;;27.65;;
32734;SDS011;19112;51.076;3.706;2023-04-06T04:12:55;55.28;;;29.38;;
32734;SDS011;19112;51.076;3.706;2023-04-06T04:15:21;57.20;;;26.73;;
32734;SDS011;19112;51.076;3.706;2023-04-06T04:17:47;55.63;;;27.33;;
32734;SDS011;19112;51.076;3.706;2023-04-06T04:20:14;54.05;;;27.88;;
32734;SDS011;19112;51.076;3.706;2023-04-06T04:22:41;55.35;;;27.30;;
32734;SDS011;19112;51.076;3.706;2023-04-06T04:25:07;52.58;;;26.27;;
32734;SDS011;19112;51.076;3.706;2023-04-06T04:27:34;57.95;;;27.38;;
32734;SDS011;19112;51.076;3.706;2023-04-06T04:30:00;51.33;;;26.30;;
32734;SDS011;19112;51.076;3.706;2023-04-06T04:32:26;62.30;;;26.90;;
32734;SDS011;19112;51.076;3.706;2023-04-06T04:34:53;60.10;;;28.00;;
32734;SDS011;19112;51.076;3.706;2023-04-06T04:37:20;56.65;;;27.15;;
32734;SDS011;19112;51.076;3.706;2023-04-06T04:39:46;55.67;;;27.35;;
32734;SDS011;19112;51.076;3.706;2023-04-06T04:42:11;57.83;;;27.67;;
32734;SDS011;19112;51.076;3.706;2023-04-06T04:44:39;54.58;;;25.98;;
32734;SDS011;19112;51.076;3.706;2023-04-06T04:47:05;49.80;;;25.75;;
32734;SDS011;19112;51.076;3.706;2023-04-06T04:49:31;53.47;;;27.13;;
32734;SDS011;19112;51.076;3.706;2023-04-06T04:51:56;52.35;;;28.20;;
32734;SDS011;19112;51.076;3.706;2023-04-06T04:54:22;55.25;;;27.35;;
32734;SDS011;19112;51.076;3.706;2023-04-06T04:56:48;54.72;;;27.92;;
32734;SDS011;19112;51.076;3.706;2023-04-06T04:59:15;52.45;;;26.25;;
32734;SDS011;19112;51.076;3.706;2023-04-06T05:01:41;53.03;;;25.58;;
32734;SDS011;19112;51.076;3.706;2023-04-06T05:04:07;51.42;;;26.65;;
32734;SDS011;19112;51.076;3.706;2023-04-06T05:06:33;56.60;;;27.23;;
32734;SDS011;19112;51.076;3.706;2023-04-06T05:08:58;51.35;;;26.17;;
32734;SDS011;19112;51.076;3.706;2023-04-06T05:11:24;49.67;;;26.85;;
32734;SDS011;19112;51.076;3.706;2023-04-06T05:13:51;46.72;;;24.45;;
32734;SDS011;19112;51.076;3.706;2023-04-06T05:16:17;53.58;;;26.38;;
32734;SDS011;19112;51.076;3.706;2023-04-06T05:18:43;51.65;;;26.02;;
32734;SDS011;19112;51.076;3.706;2023-04-06T05:21:09;49.20;;;26.10;;
32734;SDS011;19112;51.076;3.706;2023-04-06T05:23:36;46.65;;;25.23;;
32734;SDS011;19112;51.076;3.706;2023-04-06T05:26:02;50.78;;;24.92;;
32734;SDS011;19112;51.076;3.706;2023-04-06T05:28:28;48.67;;;25.60;;
32734;SDS011;19112;51.076;3.706;2023-04-06T05:30:55;48.40;;;25.60;;
32734;SDS011;19112;51.076;3.706;2023-04-06T05:33:22;47.10;;;25.67;;
32734;SDS011;19112;51.076;3.706;2023-04-06T05:35:49;54.05;;;27.13;;
32734;SDS011;19112;51.076;3.706;2023-04-06T05:38:14;45.70;;;25.48;;
32734;SDS011;19112;51.076;3.706;2023-04-06T05:40:40;48.97;;;25.48;;
32734;SDS011;19112;51.076;3.706;2023-04-06T05:43:06;50.65;;;27.40;;
32734;SDS011;19112;51.076;3.706;2023-04-06T05:45:33;48.83;;;25.45;;
32734;SDS011;19112;51.076;3.706;2023-04-06T05:48:01;49.72;;;25.52;;
32734;SDS011;19112;51.076;3.706;2023-04-06T05:50:27;49.47;;;25.17;;
32734;SDS011;19112;51.076;3.706;2023-04-06T05:52:54;51.70;;;26.58;;
32734;SDS011;19112;51.076;3.706;2023-04-06T05:55:19;46.70;;;24.80;;
32734;SDS011;19112;51.076;3.706;2023-04-06T05:57:45;47.58;;;22.75;;
32734;SDS011;19112;51.076;3.706;2023-04-06T06:00:11;46.42;;;23.08;;
32734;SDS011;19112;51.076;3.706;2023-04-06T06:02:38;43.05;;;22.40;;
32734;SDS011;19112;51.076;3.706;2023-04-06T06:05:04;44.42;;;22.35;;
32734;SDS011;19112;51.076;3.706;2023-04-06T06:07:30;46.17;;;23.70;;
32734;SDS011;19112;51.076;3.706;2023-04-06T06:09:57;50.15;;;23.98;;
32734;SDS011;19112;51.076;3.706;2023-04-06T06:12:23;47.00;;;23.52;;
32734;SDS011;19112;51.076;3.706;2023-04-06T06:14:49;44.50;;;21.65;;
32734;SDS011;19112;51.076;3.706;2023-04-06T06:17:15;45.95;;;20.85;;
32734;SDS011;19112;51.076;3.706;2023-04-06T06:19:41;40.47;;;20.90;;
32734;SDS011;19112;51.076;3.706;2023-04-06T06:22:07;43.00;;;18.67;;
32734;SDS011;19112;51.076;3.706;2023-04-06T06:24:32;41.00;;;18.70;;
32734;SDS011;19112;51.076;3.706;2023-04-06T06:27:04;38.40;;;17.05;;
32734;SDS011;19112;51.076;3.706;2023-04-06T06:32:49;32.85;;;15.43;;
32734;SDS011;19112;51.076;3.706;2023-04-06T06:44:46;31.80;;;13.23;;
32734;SDS011;19112;51.076;3.706;2023-04-06T06:47:11;31.17;;;13.88;;
32734;SDS011;19112;51.076;3.706;2023-04-06T06:49:37;36.28;;;14.52;;
32734;SDS011;19112;51.076;3.706;2023-04-06T06:52:03;35.00;;;14.55;;
32734;SDS011;19112;51.076;3.706;2023-04-06T06:54:30;28.30;;;13.68;;
32734;SDS011;19112;51.076;3.706;2023-04-06T06:56:56;32.00;;;13.93;;
32734;SDS011;19112;51.076;3.706;2023-04-06T06:59:24;34.60;;;13.95;;
32734;SDS011;19112;51.076;3.706;2023-04-06T07:01:52;28.10;;;13.43;;
32734;SDS011;19112;51.076;3.706;2023-04-06T07:04:18;33.72;;;13.70;;
32734;SDS011;19112;51.076;3.706;2023-04-06T07:06:44;25.88;;;12.73;;
32734;SDS011;19112;51.076;3.706;2023-04-06T07:09:10;30.05;;;12.63;;
32734;SDS011;19112;51.076;3.706;2023-04-06T07:11:36;27.30;;;11.60;;
32734;SDS011;19112;51.076;3.706;2023-04-06T07:14:02;27.48;;;10.75;;
32734;SDS011;19112;51.076;3.706;2023-04-06T07:16:28;27.55;;;12.60;;
32734;SDS011;19112;51.076;3.706;2023-04-06T07:18:54;28.10;;;11.85;;
32734;SDS011;19112;51.076;3.706;2023-04-06T07:21:20;25.35;;;10.73;;
32734;SDS011;19112;51.076;3.706;2023-04-06T07:23:46;31.52;;;12.00;;
32734;SDS011;19112;51.076;3.706;2023-04-06T07:26:14;28.48;;;11.82;;
32734;SDS011;19112;51.076;3.706;2023-04-06T07:28:40;28.88;;;11.40;;
32734;SDS011;19112;51.076;3.706;2023-04-06T07:31:06;21.95;;;10.57;;
32734;SDS011;19112;51.076;3.706;2023-04-06T07:33:32;27.20;;;10.45;;
32734;SDS011;19112;51.076;3.706;2023-04-06T07:35:57;23.92;;;10.45;;
32734;SDS011;19112;51.076;3.706;2023-04-06T07:38:24;26.33;;;9.90;;
32734;SDS011;19112;51.076;3.706;2023-04-06T07:40:50;22.77;;;10.10;;
32734;SDS011;19112;51.076;3.706;2023-04-06T07:43:15;26.05;;;9.80;;
32734;SDS011;19112;51.076;3.706;2023-04-06T07:45:41;27.02;;;9.95;;
32734;SDS011;19112;51.076;3.706;2023-04-06T07:48:07;24.77;;;9.70;;
32734;SDS011;19112;51.076;3.706;2023-04-06T07:50:34;26.70;;;10.80;;
32734;SDS011;19112;51.076;3.706;2023-04-06T07:53:00;23.27;;;9.40;;
32734;SDS011;19112;51.076;3.706;2023-04-06T07:55:26;22.55;;;9.90;;
32734;SDS011;19112;51.076;3.706;2023-04-06T07:57:52;22.88;;;9.32;;
32734;SDS011;19112;51.076;3.706;2023-04-06T08:00:17;24.88;;;10.27;;
32734;SDS011;19112;51.076;3.706;2023-04-06T08:02:44;24.40;;;10.02;;
32734;SDS011;19112;51.076;3.706;2023-04-06T08:05:09;25.52;;;9.45;;
32734;SDS011;19112;51.076;3.706;2023-04-06T08:07:35;23.48;;;9.60;;
32734;SDS011;19112;51.076;3.706;2023-04-06T08:10:03;21.75;;;8.95;;
32734;SDS011;19112;51.076;3.706;2023-04-06T08:12:32;24.85;;;10.40;;
32734;SDS011;19112;51.076;3.706;2023-04-06T08:14:59;25.88;;;9.50;;
32734;SDS011;19112;51.076;3.706;2023-04-06T08:17:27;24.83;;;11.07;;
32734;SDS011;19112;51.076;3.706;2023-04-06T08:19:55;27.70;;;10.73;;
32734;SDS011;19112;51.076;3.706;2023-04-06T08:22:21;26.67;;;9.57;;
32734;SDS011;19112;51.076;3.706;2023-04-06T08:24:46;30.65;;;11.70;;
32734;SDS011;19112;51.076;3.706;2023-04-06T08:27:12;23.20;;;10.75;;
32734;SDS011;19112;51.076;3.706;2023-04-06T08:29:39;25.77;;;10.63;;
32734;SDS011;19112;51.076;3.706;2023-04-06T08:32:06;27.15;;;10.80;;
32734;SDS011;19112;51.076;3.706;2023-04-06T08:34:32;25.02;;;10.70;;
32734;SDS011;19112;51.076;3.706;2023-04-06T08:36:58;24.00;;;10.77;;
32734;SDS011;19112;51.076;3.706;2023-04-06T08:39:25;25.98;;;11.35;;
32734;SDS011;19112;51.076;3.706;2023-04-06T08:41:53;25.35;;;10.82;;
32734;SDS011;19112;51.076;3.706;2023-04-06T08:44:24;27.23;;;11.80;;
32734;SDS011;19112;51.076;3.706;2023-04-06T08:46:50;24.85;;;10.75;;
32734;SDS011;19112;51.076;3.706;2023-04-06T08:49:17;26.55;;;12.25;;
32734;SDS011;19112;51.076;3.706;2023-04-06T08:51:44;30.42;;;11.65;;
32734;SDS011;19112;51.076;3.706;2023-04-06T08:54:11;27.45;;;11.82;;
32734;SDS011;19112;51.076;3.706;2023-04-06T08:56:37;27.00;;;12.05;;
32734;SDS011;19112;51.076;3.706;2023-04-06T08:59:04;30.52;;;12.60;;
32734;SDS011;19112;51.076;3.706;2023-04-06T09:01:33;28.52;;;13.35;;
32734;SDS011;19112;51.076;3.706;2023-04-06T09:04:03;29.20;;;12.65;;
32734;SDS011;19112;51.076;3.706;2023-04-06T09:06:34;31.73;;;13.18;;
32734;SDS011;19112;51.076;3.706;2023-04-06T09:09:01;26.83;;;12.98;;
32734;SDS011;19112;51.076;3.706;2023-04-06T09:11:28;32.53;;;13.35;;
32734;SDS011;19112;51.076;3.706;2023-04-06T09:13:55;29.13;;;13.57;;
32734;SDS011;19112;51.076;3.706;2023-04-06T09:16:22;27.25;;;12.50;;
32734;SDS011;19112;51.076;3.706;2023-04-06T09:18:48;27.00;;;12.82;;
32734;SDS011;19112;51.076;3.706;2023-04-06T09:21:18;28.23;;;11.15;;
32734;SDS011;19112;51.076;3.706;2023-04-06T09:23:45;31.38;;;14.70;;
32734;SDS011;19112;51.076;3.706;2023-04-06T09:28:49;27.52;;;11.50;;
32734;SDS011;19112;51.076;3.706;2023-04-06T09:31:28;25.95;;;11.70;;
32734;SDS011;19112;51.076;3.706;2023-04-06T09:33:58;27.23;;;13.85;;
32734;SDS011;19112;51.076;3.706;2023-04-06T09:39:03;31.25;;;14.48;;
32734;SDS011;19112;51.076;3.706;2023-04-06T09:41:31;28.52;;;13.18;;
32734;SDS011;19112;51.076;3.706;2023-04-06T09:44:05;26.02;;;11.82;;
32734;SDS011;19112;51.076;3.706;2023-04-06T09:46:38;30.17;;;13.95;;
32734;SDS011;19112;51.076;3.706;2023-04-06T09:49:09;29.10;;;13.07;;
32734;SDS011;19112;51.076;3.706;2023-04-06T09:51:37;28.15;;;13.27;;
32734;SDS011;19112;51.076;3.706;2023-04-06T09:54:20;28.80;;;12.77;;
32734;SDS011;19112;51.076;3.706;2023-04-06T09:59:45;31.25;;;13.77;;
32734;SDS011;19112;51.076;3.706;2023-04-06T10:02:32;27.45;;;13.68;;
32734;SDS011;19112;51.076;3.706;2023-04-06T10:08:26;27.45;;;12.82;;
32734;SDS011;19112;51.076;3.706;2023-04-06T10:10:54;27.88;;;13.30;;
32734;SDS011;19112;51.076;3.706;2023-04-06T10:13:20;27.70;;;12.80;;
32734;SDS011;19112;51.076;3.706;2023-04-06T10:15:48;29.90;;;14.65;;
32734;SDS011;19112;51.076;3.706;2023-04-06T10:18:15;26.05;;;12.32;;
32734;SDS011;19112;51.076;3.706;2023-04-06T10:20:47;28.05;;;12.85;;
32734;SDS011;19112;51.076;3.706;2023-04-06T10:26:14;28.55;;;13.93;;
32734;SDS011;19112;51.076;3.706;2023-04-06T10:28:45;26.20;;;12.43;;
32734;SDS011;19112;51.076;3.706;2023-04-06T10:31:13;25.08;;;11.23;;
32734;SDS011;19112;51.076;3.706;2023-04-06T10:33:39;25.27;;;12.50;;
32734;SDS011;19112;51.076;3.706;2023-04-06T10:36:25;29.60;;;12.70;;
32734;SDS011;19112;51.076;3.706;2023-04-06T10:38:56;29.00;;;12.65;;
32734;SDS011;19112;51.076;3.706;2023-04-06T10:41:31;24.48;;;11.77;;
32734;SDS011;19112;51.076;3.706;2023-04-06T10:44:30;25.20;;;12.00;;
32734;SDS011;19112;51.076;3.706;2023-04-06T10:47:07;25.88;;;11.75;;
32734;SDS011;19112;51.076;3.706;2023-04-06T10:49:44;22.60;;;10.23;;
32734;SDS011;19112;51.076;3.706;2023-04-06T10:52:10;24.70;;;11.68;;
32734;SDS011;19112;51.076;3.706;2023-04-06T10:54:38;25.45;;;11.57;;
32734;SDS011;19112;51.076;3.706;2023-04-06T10:57:08;24.48;;;12.05;;
32734;SDS011;19112;51.076;3.706;2023-04-06T10:59:35;23.45;;;11.02;;
32734;SDS011;19112;51.076;3.706;2023-04-06T11:02:01;21.80;;;10.18;;
32734;SDS011;19112;51.076;3.706;2023-04-06T11:04:26;22.60;;;10.57;;
32734;SDS011;19112;51.076;3.706;2023-04-06T11:06:52;22.70;;;10.68;;
32734;SDS011;19112;51.076;3.706;2023-04-06T11:09:26;22.27;;;10.45;;
32734;SDS011;19112;51.076;3.706;2023-04-06T11:11:54;26.45;;;12.75;;
32734;SDS011;19112;51.076;3.706;2023-04-06T11:14:21;22.90;;;10.80;;
32734;SDS011;19112;51.076;3.706;2023-04-06T11:16:48;23.90;;;11.43;;
32734;SDS011;19112;51.076;3.706;2023-04-06T11:19:15;23.63;;;11.75;;
32734;SDS011;19112;51.076;3.706;2023-04-06T11:26:49;20.90;;;9.70;;
32734;SDS011;19112;51.076;3.706;2023-04-06T11:29:20;21.25;;;9.68;;
32734;SDS011;19112;51.076;3.706;2023-04-06T11:31:49;21.35;;;9.93;;
32734;SDS011;19112;51.076;3.706;2023-04-06T11:34:18;19.83;;;9.02;;
32734;SDS011;19112;51.076;3.706;2023-04-06T11:36:46;21.20;;;9.90;;
32734;SDS011;19112;51.076;3.706;2023-04-06T11:41:51;42.90;;;11.27;;
32734;SDS011;19112;51.076;3.706;2023-04-06T11:44:35;22.63;;;10.43;;
32734;SDS011;19112;51.076;3.706;2023-04-06T11:47:11;22.65;;;9.35;;
32734;SDS011;19112;51.076;3.706;2023-04-06T11:49:42;22.08;;;9.73;;
32734;SDS011;19112;51.076;3.706;2023-04-06T11:52:19;22.77;;;9.93;;
32734;SDS011;19112;51.076;3.706;2023-04-06T11:54:49;23.88;;;10.75;;
32734;SDS011;19112;51.076;3.706;2023-04-06T11:57:16;21.15;;;10.15;;
32734;SDS011;19112;51.076;3.706;2023-04-06T11:59:44;22.52;;;10.35;;
32734;SDS011;19112;51.076;3.706;2023-04-06T12:02:11;24.10;;;11.18;;
32734;SDS011;19112;51.076;3.706;2023-04-06T12:04:37;23.63;;;10.48;;
32734;SDS011;19112;51.076;3.706;2023-04-06T12:07:03;24.60;;;12.13;;
32734;SDS011;19112;51.076;3.706;2023-04-06T12:09:30;23.75;;;12.25;;
32734;SDS011;19112;51.076;3.706;2023-04-06T12:11:56;24.17;;;12.27;;
32734;SDS011;19112;51.076;3.706;2023-04-06T12:14:22;25.38;;;12.32;;
32734;SDS011;19112;51.076;3.706;2023-04-06T12:16:48;24.80;;;12.40;;
32734;SDS011;19112;51.076;3.706;2023-04-06T12:19:14;28.65;;;13.13;;
32734;SDS011;19112;51.076;3.706;2023-04-06T12:21:40;28.25;;;14.65;;
32734;SDS011;19112;51.076;3.706;2023-04-06T12:24:07;29.65;;;14.93;;
32734;SDS011;19112;51.076;3.706;2023-04-06T12:26:33;27.10;;;15.10;;
32734;SDS011;19112;51.076;3.706;2023-04-06T12:29:00;30.45;;;15.40;;
32734;SDS011;19112;51.076;3.706;2023-04-06T12:31:33;30.95;;;16.60;;
32734;SDS011;19112;51.076;3.706;2023-04-06T12:34:01;31.08;;;16.15;;
32734;SDS011;19112;51.076;3.706;2023-04-06T12:36:28;30.08;;;15.10;;
32734;SDS011;19112;51.076;3.706;2023-04-06T12:38:54;29.50;;;15.77;;
32734;SDS011;19112;51.076;3.706;2023-04-06T12:41:21;29.63;;;15.10;;
32734;SDS011;19112;51.076;3.706;2023-04-06T12:43:48;30.80;;;16.77;;
32734;SDS011;19112;51.076;3.706;2023-04-06T12:46:15;28.17;;;14.23;;
32734;SDS011;19112;51.076;3.706;2023-04-06T12:48:41;27.98;;;15.00;;
32734;SDS011;19112;51.076;3.706;2023-04-06T12:51:07;29.70;;;14.85;;
32734;SDS011;19112;51.076;3.706;2023-04-06T12:53:33;28.98;;;14.68;;
32734;SDS011;19112;51.076;3.706;2023-04-06T12:56:00;29.35;;;14.70;;
32734;SDS011;19112;51.076;3.706;2023-04-06T12:58:27;28.30;;;14.98;;
32734;SDS011;19112;51.076;3.706;2023-04-06T13:00:55;29.13;;;14.32;;
32734;SDS011;19112;51.076;3.706;2023-04-06T13:03:23;28.35;;;15.88;;
32734;SDS011;19112;51.076;3.706;2023-04-06T13:05:50;27.27;;;14.43;;
32734;SDS011;19112;51.076;3.706;2023-04-06T13:08:18;25.85;;;14.23;;
32734;SDS011;19112;51.076;3.706;2023-04-06T13:10:48;28.67;;;14.55;;
32734;SDS011;19112;51.076;3.706;2023-04-06T13:13:17;29.25;;;15.60;;
32734;SDS011;19112;51.076;3.706;2023-04-06T13:15:50;29.35;;;14.70;;
32734;SDS011;19112;51.076;3.706;2023-04-06T13:18:16;31.10;;;15.57;;
32734;SDS011;19112;51.076;3.706;2023-04-06T13:20:42;27.33;;;15.15;;
32734;SDS011;19112;51.076;3.706;2023-04-06T13:23:08;29.33;;;14.55;;
32734;SDS011;19112;51.076;3.706;2023-04-06T13:25:34;27.02;;;14.43;;
32734;SDS011;19112;51.076;3.706;2023-04-06T13:28:00;25.17;;;13.88;;
32734;SDS011;19112;51.076;3.706;2023-04-06T13:30:26;28.15;;;15.45;;
32734;SDS011;19112;51.076;3.706;2023-04-06T13:32:52;28.98;;;15.52;;
32734;SDS011;19112;51.076;3.706;2023-04-06T13:35:18;27.27;;;14.35;;
32734;SDS011;19112;51.076;3.706;2023-04-06T13:37:44;26.30;;;14.02;;
32734;SDS011;19112;51.076;3.706;2023-04-06T13:40:10;24.88;;;13.30;;
32734;SDS011;19112;51.076;3.706;2023-04-06T13:42:36;26.75;;;13.35;;
32734;SDS011;19112;51.076;3.706;2023-04-06T13:45:07;23.98;;;12.85;;
32734;SDS011;19112;51.076;3.706;2023-04-06T13:47:33;25.30;;;13.00;;
32734;SDS011;19112;51.076;3.706;2023-04-06T13:49:59;25.80;;;12.90;;
32734;SDS011;19112;51.076;3.706;2023-04-06T13:52:25;28.92;;;12.95;;
32734;SDS011;19112;51.076;3.706;2023-04-06T13:54:52;24.05;;;13.38;;
32734;SDS011;19112;51.076;3.706;2023-04-06T13:57:18;23.70;;;12.40;;
32734;SDS011;19112;51.076;3.706;2023-04-06T13:59:43;25.92;;;13.00;;
32734;SDS011;19112;51.076;3.706;2023-04-06T14:02:09;24.10;;;12.55;;
32734;SDS011;19112;51.076;3.706;2023-04-06T14:04:36;29.15;;;12.68;;
32734;SDS011;19112;51.076;3.706;2023-04-06T14:07:02;28.13;;;13.13;;
32734;SDS011;19112;51.076;3.706;2023-04-06T14:09:29;26.58;;;12.63;;
32734;SDS011;19112;51.076;3.706;2023-04-06T14:11:55;26.40;;;12.50;;
32734;SDS011;19112;51.076;3.706;2023-04-06T14:14:22;27.65;;;13.45;;
32734;SDS011;19112;51.076;3.706;2023-04-06T14:16:49;25.45;;;12.70;;
32734;SDS011;19112;51.076;3.706;2023-04-06T14:19:16;24.58;;;12.27;;
32734;SDS011;19112;51.076;3.706;2023-04-06T14:21:46;27.20;;;13.00;;
32734;SDS011;19112;51.076;3.706;2023-04-06T14:24:13;24.25;;;12.63;;
32734;SDS011;19112;51.076;3.706;2023-04-06T14:26:39;24.58;;;12.65;;
32734;SDS011;19112;51.076;3.706;2023-04-06T14:29:09;30.95;;;13.45;;
32734;SDS011;19112;51.076;3.706;2023-04-06T14:31:35;29.13;;;13.07;;
32734;SDS011;19112;51.076;3.706;2023-04-06T14:34:02;25.25;;;11.75;;
32734;SDS011;19112;51.076;3.706;2023-04-06T14:36:30;25.85;;;13.10;;
32734;SDS011;19112;51.076;3.706;2023-04-06T14:39:04;29.30;;;12.98;;
32734;SDS011;19112;51.076;3.706;2023-04-06T14:41:31;41.67;;;14.05;;
32734;SDS011;19112;51.076;3.706;2023-04-06T14:43:58;31.30;;;13.02;;
32734;SDS011;19112;51.076;3.706;2023-04-06T14:46:24;32.65;;;14.07;;
32734;SDS011;19112;51.076;3.706;2023-04-06T14:48:51;35.05;;;15.07;;
32734;SDS011;19112;51.076;3.706;2023-04-06T14:51:22;45.92;;;13.50;;
32734;SDS011;19112;51.076;3.706;2023-04-06T14:53:52;32.63;;;15.48;;
32734;SDS011;19112;51.076;3.706;2023-04-06T14:56:19;29.50;;;13.50;;
32734;SDS011;19112;51.076;3.706;2023-04-06T14:58:52;32.13;;;13.48;;